sensor_id;sensor_type;location;lat;lon;timestamp;pressure;altitude;pressure_sealevel;temperature;humidity
66396;BME280;53207;51.378;-1.342;2023-05-10T00:00:16;99760.01;;;22.70;39.42
66396;BME280;53207;51.378;-1.342;2023-05-10T00:02:43;99765.96;;;22.72;39.27
66396;BME280;53207;51.378;-1.342;2023-05-10T00:05:10;99766.24;;;22.66;39.37
66396;BME280;53207;51.378;-1.342;2023-05-10T00:07:37;99768.88;;;22.46;39.21
66396;BME280;53207;51.378;-1.342;2023-05-10T00:10:05;99771.30;;;22.70;39.10
66396;BME280;53207;51.378;-1.342;2023-05-10T00:12:33;99770.89;;;22.69;39.04
66396;BME280;53207;51.378;-1.342;2023-05-10T00:15:00;99772.30;;;22.42;39.10
66396;BME280;53207;51.378;-1.342;2023-05-10T00:17:27;99776.48;;;22.43;39.09
66396;BME280;53207;51.378;-1.342;2023-05-10T00:19:54;99774.87;;;22.69;38.95
66396;BME280;53207;51.378;-1.342;2023-05-10T00:22:22;99773.49;;;22.89;39.03
66396;BME280;53207;51.378;-1.342;2023-05-10T00:24:49;99773.72;;;22.64;39.00
66396;BME280;53207;51.378;-1.342;2023-05-10T00:27:16;99774.69;;;22.62;39.01
66396;BME280;53207;51.378;-1.342;2023-05-10T00:29:43;99772.62;;;22.59;38.85
66396;BME280;53207;51.378;-1.342;2023-05-10T00:32:11;99769.95;;;22.60;38.82
66396;BME280;53207;51.378;-1.342;2023-05-10T00:34:38;99771.27;;;22.61;38.78
66396;BME280;53207;51.378;-1.342;2023-05-10T00:37:05;99773.85;;;22.33;38.78
66396;BME280;53207;51.378;-1.342;2023-05-10T00:39:33;99774.26;;;22.76;38.82
66396;BME280;53207;51.378;-1.342;2023-05-10T00:42:00;99772.52;;;22.46;38.80
66396;BME280;53207;51.378;-1.342;2023-05-10T00:44:27;99774.53;;;22.24;38.77
66396;BME280;53207;51.378;-1.342;2023-05-10T00:46:54;99771.50;;;22.38;38.76
66396;BME280;53207;51.378;-1.342;2023-05-10T00:49:22;99772.44;;;22.69;38.67
66396;BME280;53207;51.378;-1.342;2023-05-10T00:51:49;99776.43;;;22.43;38.63
66396;BME280;53207;51.378;-1.342;2023-05-10T00:54:16;99776.83;;;22.41;38.62
66396;BME280;53207;51.378;-1.342;2023-05-10T00:56:44;99779.81;;;22.67;38.54
66396;BME280;53207;51.378;-1.342;2023-05-10T00:59:11;99781.16;;;22.66;38.63
66396;BME280;53207;51.378;-1.342;2023-05-10T01:01:38;99779.04;;;22.62;38.65
66396;BME280;53207;51.378;-1.342;2023-05-10T01:04:05;99778.32;;;22.15;38.59
66396;BME280;53207;51.378;-1.342;2023-05-10T01:06:33;99778.71;;;22.30;38.61
66396;BME280;53207;51.378;-1.342;2023-05-10T01:09:00;99780.78;;;22.33;38.50
66396;BME280;53207;51.378;-1.342;2023-05-10T01:11:27;99784.81;;;22.28;38.60
66396;BME280;53207;51.378;-1.342;2023-05-10T01:13:56;99785.32;;;22.57;38.52
66396;BME280;53207;51.378;-1.342;2023-05-10T01:16:24;99784.67;;;22.28;38.46
66396;BME280;53207;51.378;-1.342;2023-05-10T01:18:53;99786.74;;;22.31;38.40
66396;BME280;53207;51.378;-1.342;2023-05-10T01:21:27;99784.77;;;22.59;38.30
66396;BME280;53207;51.378;-1.342;2023-05-10T01:24:14;99785.24;;;22.59;38.31
66396;BME280;53207;51.378;-1.342;2023-05-10T01:27:17;99787.47;;;22.50;38.43
66396;BME280;53207;51.378;-1.342;2023-05-10T01:30:21;99786.09;;;22.52;38.31
66396;BME280;53207;51.378;-1.342;2023-05-10T01:32:53;99787.70;;;22.27;38.22
66396;BME280;53207;51.378;-1.342;2023-05-10T01:35:31;99788.95;;;22.45;38.26
66396;BME280;53207;51.378;-1.342;2023-05-10T01:38:07;99791.40;;;22.04;38.12
66396;BME280;53207;51.378;-1.342;2023-05-10T01:40:45;99791.66;;;22.52;38.06
66396;BME280;53207;51.378;-1.342;2023-05-10T01:43:19;99790.73;;;22.45;38.06
66396;BME280;53207;51.378;-1.342;2023-05-10T01:45:57;99792.59;;;22.16;38.11
66396;BME280;53207;51.378;-1.342;2023-05-10T01:48:27;99791.99;;;22.12;38.18
66396;BME280;53207;51.378;-1.342;2023-05-10T01:50:55;99793.85;;;22.40;38.04
66396;BME280;53207;51.378;-1.342;2023-05-10T01:53:24;99792.03;;;22.40;37.96
66396;BME280;53207;51.378;-1.342;2023-05-10T01:55:53;99794.21;;;22.36;38.10
66396;BME280;53207;51.378;-1.342;2023-05-10T01:58:24;99794.95;;;22.33;38.03
66396;BME280;53207;51.378;-1.342;2023-05-10T02:00:54;99798.08;;;22.01;37.98
66396;BME280;53207;51.378;-1.342;2023-05-10T02:03:24;99794.20;;;22.28;37.92
66396;BME280;53207;51.378;-1.342;2023-05-10T02:05:53;99795.93;;;22.02;37.87
66396;BME280;53207;51.378;-1.342;2023-05-10T02:08:22;99799.06;;;22.26;37.92
66396;BME280;53207;51.378;-1.342;2023-05-10T02:10:50;99804.22;;;22.19;37.90
66396;BME280;53207;51.378;-1.342;2023-05-10T02:13:19;99802.99;;;22.22;37.85
66396;BME280;53207;51.378;-1.342;2023-05-10T02:15:48;99806.04;;;21.95;37.82
66396;BME280;53207;51.378;-1.342;2023-05-10T02:18:17;99809.81;;;22.20;37.77
66396;BME280;53207;51.378;-1.342;2023-05-10T02:20:46;99811.90;;;22.21;37.77
66396;BME280;53207;51.378;-1.342;2023-05-10T02:23:14;99815.12;;;22.18;37.77
66396;BME280;53207;51.378;-1.342;2023-05-10T02:25:44;99814.91;;;21.86;37.78
66396;BME280;53207;51.378;-1.342;2023-05-10T02:28:14;99815.17;;;22.11;37.75
66396;BME280;53207;51.378;-1.342;2023-05-10T02:30:42;99812.93;;;22.13;37.80
66396;BME280;53207;51.378;-1.342;2023-05-10T02:33:10;99812.45;;;22.10;37.75
66396;BME280;53207;51.378;-1.342;2023-05-10T02:35:38;99817.14;;;21.79;37.87
66396;BME280;53207;51.378;-1.342;2023-05-10T02:38:06;99816.87;;;22.06;37.82
66396;BME280;53207;51.378;-1.342;2023-05-10T02:40:35;99821.51;;;22.11;37.72
66396;BME280;53207;51.378;-1.342;2023-05-10T02:43:04;99826.20;;;21.84;37.66
66396;BME280;53207;51.378;-1.342;2023-05-10T02:45:35;99829.14;;;22.07;37.74
66396;BME280;53207;51.378;-1.342;2023-05-10T02:48:03;99833.62;;;21.76;37.81
66396;BME280;53207;51.378;-1.342;2023-05-10T02:50:32;99837.16;;;22.06;37.74
66396;BME280;53207;51.378;-1.342;2023-05-10T02:53:02;99839.88;;;22.08;37.68
66396;BME280;53207;51.378;-1.342;2023-05-10T02:55:36;99842.29;;;22.05;37.72
66396;BME280;53207;51.378;-1.342;2023-05-10T02:58:05;99844.54;;;21.98;37.70
66396;BME280;53207;51.378;-1.342;2023-05-10T03:00:32;99846.27;;;21.97;37.71
66396;BME280;53207;51.378;-1.342;2023-05-10T03:03:00;99847.45;;;21.98;37.68
66396;BME280;53207;51.378;-1.342;2023-05-10T03:05:27;99847.98;;;21.93;37.76
66396;BME280;53207;51.378;-1.342;2023-05-10T03:07:54;99847.97;;;21.97;37.74
66396;BME280;53207;51.378;-1.342;2023-05-10T03:10:25;99852.20;;;21.91;37.77
66396;BME280;53207;51.378;-1.342;2023-05-10T03:13:01;99854.82;;;21.94;37.75
66396;BME280;53207;51.378;-1.342;2023-05-10T03:15:37;99854.70;;;21.89;37.78
66396;BME280;53207;51.378;-1.342;2023-05-10T03:18:10;99855.61;;;21.91;37.74
66396;BME280;53207;51.378;-1.342;2023-05-10T03:20:42;99852.95;;;21.85;37.79
66396;BME280;53207;51.378;-1.342;2023-05-10T03:23:17;99853.84;;;21.92;37.66
66396;BME280;53207;51.378;-1.342;2023-05-10T03:25:48;99855.20;;;21.91;37.55
66396;BME280;53207;51.378;-1.342;2023-05-10T03:28:18;99857.79;;;21.62;37.76
66396;BME280;53207;51.378;-1.342;2023-05-10T03:30:46;99856.80;;;21.87;37.86
66396;BME280;53207;51.378;-1.342;2023-05-10T03:33:13;99858.44;;;21.82;38.15
66396;BME280;53207;51.378;-1.342;2023-05-10T03:35:40;99858.90;;;21.93;37.90
66396;BME280;53207;51.378;-1.342;2023-05-10T03:38:08;99855.36;;;21.82;38.05
66396;BME280;53207;51.378;-1.342;2023-05-10T03:40:35;99856.53;;;21.83;38.02
66396;BME280;53207;51.378;-1.342;2023-05-10T03:43:02;99856.11;;;21.79;38.22
66396;BME280;53207;51.378;-1.342;2023-05-10T03:45:30;99857.34;;;21.77;38.18
66396;BME280;53207;51.378;-1.342;2023-05-10T03:47:57;99856.32;;;22.00;38.23
66396;BME280;53207;51.378;-1.342;2023-05-10T03:50:24;99854.44;;;21.82;38.10
66396;BME280;53207;51.378;-1.342;2023-05-10T03:52:52;99856.61;;;22.06;37.99
66396;BME280;53207;51.378;-1.342;2023-05-10T03:55:19;99862.77;;;21.96;38.17
66396;BME280;53207;51.378;-1.342;2023-05-10T03:57:46;99864.41;;;21.79;38.14
66396;BME280;53207;51.378;-1.342;2023-05-10T04:00:14;99865.97;;;21.76;38.23
66396;BME280;53207;51.378;-1.342;2023-05-10T04:02:41;99868.41;;;21.71;38.26
66396;BME280;53207;51.378;-1.342;2023-05-10T04:05:09;99870.73;;;21.75;38.13
66396;BME280;53207;51.378;-1.342;2023-05-10T04:07:36;99872.75;;;21.75;38.10
66396;BME280;53207;51.378;-1.342;2023-05-10T04:10:04;99869.42;;;21.71;38.17
66396;BME280;53207;51.378;-1.342;2023-05-10T04:12:32;99867.84;;;21.93;38.13
66396;BME280;53207;51.378;-1.342;2023-05-10T04:14:59;99868.90;;;21.72;38.02
66396;BME280;53207;51.378;-1.342;2023-05-10T04:17:26;99869.09;;;21.71;38.08
66396;BME280;53207;51.378;-1.342;2023-05-10T04:19:53;99871.11;;;21.46;37.98
66396;BME280;53207;51.378;-1.342;2023-05-10T04:22:20;99869.00;;;21.69;38.07
66396;BME280;53207;51.378;-1.342;2023-05-10T04:24:48;99871.51;;;21.67;38.07
66396;BME280;53207;51.378;-1.342;2023-05-10T04:27:15;99872.14;;;21.68;38.04
66396;BME280;53207;51.378;-1.342;2023-05-10T04:29:42;99872.69;;;21.63;38.16
66396;BME280;53207;51.378;-1.342;2023-05-10T04:32:10;99875.32;;;21.64;38.17
66396;BME280;53207;51.378;-1.342;2023-05-10T04:34:37;99875.10;;;21.63;38.11
66396;BME280;53207;51.378;-1.342;2023-05-10T04:37:04;99872.71;;;21.60;38.09
66396;BME280;53207;51.378;-1.342;2023-05-10T04:39:31;99874.86;;;21.58;38.05
66396;BME280;53207;51.378;-1.342;2023-05-10T04:41:59;99875.16;;;21.64;37.91
66396;BME280;53207;51.378;-1.342;2023-05-10T04:44:26;99876.58;;;21.72;38.12
66396;BME280;53207;51.378;-1.342;2023-05-10T04:46:53;99879.49;;;21.53;38.12
66396;BME280;53207;51.378;-1.342;2023-05-10T04:49:20;99884.92;;;21.76;38.09
66396;BME280;53207;51.378;-1.342;2023-05-10T04:51:48;99886.19;;;21.55;38.07
66396;BME280;53207;51.378;-1.342;2023-05-10T04:54:15;99886.24;;;21.74;38.10
66396;BME280;53207;51.378;-1.342;2023-05-10T04:56:42;99889.02;;;21.45;38.12
66396;BME280;53207;51.378;-1.342;2023-05-10T04:59:09;99893.36;;;21.48;38.12
66396;BME280;53207;51.378;-1.342;2023-05-10T05:01:37;99894.04;;;21.44;38.09
66396;BME280;53207;51.378;-1.342;2023-05-10T05:04:04;99895.18;;;21.51;37.97
66396;BME280;53207;51.378;-1.342;2023-05-10T05:06:31;99895.68;;;21.46;38.02
66396;BME280;53207;51.378;-1.342;2023-05-10T05:08:58;99895.91;;;21.47;38.02
66396;BME280;53207;51.378;-1.342;2023-05-10T05:11:26;99900.42;;;21.66;38.07
66396;BME280;53207;51.378;-1.342;2023-05-10T05:13:53;99903.76;;;21.65;38.09
66396;BME280;53207;51.378;-1.342;2023-05-10T05:16:20;99903.13;;;21.86;38.13
66396;BME280;53207;51.378;-1.342;2023-05-10T05:18:47;99906.02;;;21.45;38.14
66396;BME280;53207;51.378;-1.342;2023-05-10T05:21:15;99908.25;;;21.64;38.21
66396;BME280;53207;51.378;-1.342;2023-05-10T05:23:43;99908.86;;;21.69;38.07
66396;BME280;53207;51.378;-1.342;2023-05-10T05:26:10;99907.07;;;21.49;38.03
66396;BME280;53207;51.378;-1.342;2023-05-10T05:28:38;99913.24;;;21.51;37.98
66396;BME280;53207;51.378;-1.342;2023-05-10T05:31:06;99913.21;;;21.52;38.00
66396;BME280;53207;51.378;-1.342;2023-05-10T05:33:33;99912.40;;;21.66;37.79
66396;BME280;53207;51.378;-1.342;2023-05-10T05:36:01;99913.07;;;21.71;37.86
66396;BME280;53207;51.378;-1.342;2023-05-10T05:38:29;99918.12;;;21.90;37.82
66396;BME280;53207;51.378;-1.342;2023-05-10T05:40:56;99920.11;;;21.97;37.83
66396;BME280;53207;51.378;-1.342;2023-05-10T05:43:24;99921.26;;;22.06;37.81
66396;BME280;53207;51.378;-1.342;2023-05-10T05:45:52;99927.01;;;22.15;37.78
66396;BME280;53207;51.378;-1.342;2023-05-10T05:48:19;99930.62;;;22.24;37.73
66396;BME280;53207;51.378;-1.342;2023-05-10T05:50:46;99934.97;;;22.34;37.70
66396;BME280;53207;51.378;-1.342;2023-05-10T05:53:14;99936.76;;;22.41;37.67
66396;BME280;53207;51.378;-1.342;2023-05-10T05:55:51;99940.20;;;22.49;37.60
66396;BME280;53207;51.378;-1.342;2023-05-10T05:58:18;99938.44;;;22.54;37.55
66396;BME280;53207;51.378;-1.342;2023-05-10T06:00:45;99940.77;;;22.34;37.46
66396;BME280;53207;51.378;-1.342;2023-05-10T06:03:12;99945.77;;;22.69;37.36
66396;BME280;53207;51.378;-1.342;2023-05-10T06:05:40;99944.84;;;22.72;37.27
66396;BME280;53207;51.378;-1.342;2023-05-10T06:08:07;99948.67;;;22.78;37.26
66396;BME280;53207;51.378;-1.342;2023-05-10T06:10:34;99951.50;;;22.51;37.26
66396;BME280;53207;51.378;-1.342;2023-05-10T06:13:02;99954.37;;;22.56;37.24
66396;BME280;53207;51.378;-1.342;2023-05-10T06:15:29;99956.27;;;22.55;37.27
66396;BME280;53207;51.378;-1.342;2023-05-10T06:17:56;99960.03;;;22.32;37.30
66396;BME280;53207;51.378;-1.342;2023-05-10T06:20:23;99965.43;;;22.54;37.32
66396;BME280;53207;51.378;-1.342;2023-05-10T06:22:50;99965.77;;;22.29;37.36
66396;BME280;53207;51.378;-1.342;2023-05-10T06:25:18;99966.61;;;22.54;37.44
66396;BME280;53207;51.378;-1.342;2023-05-10T06:27:45;99962.20;;;22.33;37.71
66396;BME280;53207;51.378;-1.342;2023-05-10T06:30:13;99964.24;;;22.36;37.61
66396;BME280;53207;51.378;-1.342;2023-05-10T06:32:41;99967.08;;;22.57;37.59
66396;BME280;53207;51.378;-1.342;2023-05-10T06:35:09;99972.59;;;22.57;37.67
66396;BME280;53207;51.378;-1.342;2023-05-10T06:37:36;99976.28;;;22.64;37.91
66396;BME280;53207;51.378;-1.342;2023-05-10T06:40:04;99976.84;;;22.71;37.83
66396;BME280;53207;51.378;-1.342;2023-05-10T06:42:31;99977.16;;;22.72;37.86
66396;BME280;53207;51.378;-1.342;2023-05-10T06:44:58;99979.51;;;22.50;37.93
66396;BME280;53207;51.378;-1.342;2023-05-10T06:47:25;99978.29;;;22.55;37.92
66396;BME280;53207;51.378;-1.342;2023-05-10T06:49:53;99980.97;;;22.76;37.95
66396;BME280;53207;51.378;-1.342;2023-05-10T06:52:20;99982.14;;;22.74;37.92
66396;BME280;53207;51.378;-1.342;2023-05-10T06:54:47;99984.74;;;22.77;37.86
66396;BME280;53207;51.378;-1.342;2023-05-10T06:57:14;99982.37;;;22.55;37.89
66396;BME280;53207;51.378;-1.342;2023-05-10T06:59:42;99982.66;;;22.80;37.92
66396;BME280;53207;51.378;-1.342;2023-05-10T07:02:09;99983.79;;;22.62;37.93
66396;BME280;53207;51.378;-1.342;2023-05-10T07:04:36;99983.70;;;22.83;37.96
66396;BME280;53207;51.378;-1.342;2023-05-10T07:07:03;99987.91;;;22.87;37.80
66396;BME280;53207;51.378;-1.342;2023-05-10T07:09:31;99984.82;;;22.85;37.72
66396;BME280;53207;51.378;-1.342;2023-05-10T07:11:58;99984.06;;;22.64;37.70
66396;BME280;53207;51.378;-1.342;2023-05-10T07:14:25;99985.16;;;22.92;37.63
66396;BME280;53207;51.378;-1.342;2023-05-10T07:16:53;99984.03;;;22.73;37.60
66396;BME280;53207;51.378;-1.342;2023-05-10T07:19:20;99990.44;;;22.79;37.57
66396;BME280;53207;51.378;-1.342;2023-05-10T07:21:47;99991.27;;;22.83;37.57
66396;BME280;53207;51.378;-1.342;2023-05-10T07:24:14;99990.48;;;22.75;37.71
66396;BME280;53207;51.378;-1.342;2023-05-10T07:26:41;99996.93;;;23.00;37.68
66396;BME280;53207;51.378;-1.342;2023-05-10T07:29:08;99996.75;;;22.75;37.85
66396;BME280;53207;51.378;-1.342;2023-05-10T07:31:35;99997.95;;;22.83;37.67
66396;BME280;53207;51.378;-1.342;2023-05-10T07:34:03;99997.08;;;22.71;37.82
66396;BME280;53207;51.378;-1.342;2023-05-10T07:36:30;100000.67;;;22.76;37.69
66396;BME280;53207;51.378;-1.342;2023-05-10T07:38:57;99998.98;;;22.93;37.72
66396;BME280;53207;51.378;-1.342;2023-05-10T07:41:24;100001.49;;;22.66;37.70
66396;BME280;53207;51.378;-1.342;2023-05-10T07:43:52;100003.25;;;22.91;37.66
66396;BME280;53207;51.378;-1.342;2023-05-10T07:46:19;100003.40;;;22.81;37.71
66396;BME280;53207;51.378;-1.342;2023-05-10T07:48:46;100001.01;;;22.65;37.63
66396;BME280;53207;51.378;-1.342;2023-05-10T07:51:14;100003.39;;;22.48;37.81
66396;BME280;53207;51.378;-1.342;2023-05-10T07:53:41;100006.44;;;22.83;37.64
66396;BME280;53207;51.378;-1.342;2023-05-10T07:56:25;100002.60;;;23.08;37.64
66396;BME280;53207;51.378;-1.342;2023-05-10T07:58:53;99999.19;;;22.90;37.57
66396;BME280;53207;51.378;-1.342;2023-05-10T08:01:20;100002.68;;;22.55;37.64
66396;BME280;53207;51.378;-1.342;2023-05-10T08:03:48;100002.83;;;22.75;37.70
66396;BME280;53207;51.378;-1.342;2023-05-10T08:06:17;100001.24;;;22.46;37.57
66396;BME280;53207;51.378;-1.342;2023-05-10T08:08:45;100000.78;;;22.49;37.58
66396;BME280;53207;51.378;-1.342;2023-05-10T08:11:12;100001.84;;;22.68;37.47
66396;BME280;53207;51.378;-1.342;2023-05-10T08:13:40;100000.99;;;22.47;37.58
66396;BME280;53207;51.378;-1.342;2023-05-10T08:16:07;100006.99;;;22.61;37.66
66396;BME280;53207;51.378;-1.342;2023-05-10T08:18:34;100006.82;;;22.47;37.56
66396;BME280;53207;51.378;-1.342;2023-05-10T08:21:01;100010.81;;;22.69;37.63
66396;BME280;53207;51.378;-1.342;2023-05-10T08:23:29;100008.15;;;22.42;37.59
66396;BME280;53207;51.378;-1.342;2023-05-10T08:25:56;100005.56;;;22.69;37.58
66396;BME280;53207;51.378;-1.342;2023-05-10T08:28:23;100007.71;;;22.54;37.67
66396;BME280;53207;51.378;-1.342;2023-05-10T08:30:50;100009.76;;;22.55;37.79
66396;BME280;53207;51.378;-1.342;2023-05-10T08:33:18;100014.18;;;22.59;37.70
66396;BME280;53207;51.378;-1.342;2023-05-10T08:35:45;100014.17;;;22.51;37.61
66396;BME280;53207;51.378;-1.342;2023-05-10T08:38:12;100011.25;;;22.77;37.37
66396;BME280;53207;51.378;-1.342;2023-05-10T08:40:42;100013.87;;;22.72;37.44
66396;BME280;53207;51.378;-1.342;2023-05-10T08:43:11;100010.24;;;22.58;37.35
66396;BME280;53207;51.378;-1.342;2023-05-10T08:45:41;100012.45;;;22.92;37.29
66396;BME280;53207;51.378;-1.342;2023-05-10T08:48:09;100010.07;;;22.88;37.36
66396;BME280;53207;51.378;-1.342;2023-05-10T08:50:39;100008.36;;;22.82;37.42
66396;BME280;53207;51.378;-1.342;2023-05-10T08:53:09;100001.50;;;22.64;37.40
66396;BME280;53207;51.378;-1.342;2023-05-10T08:55:37;100005.15;;;22.85;37.34
66396;BME280;53207;51.378;-1.342;2023-05-10T08:58:06;100003.22;;;22.59;37.20
66396;BME280;53207;51.378;-1.342;2023-05-10T09:00:34;100003.70;;;23.15;37.28
66396;BME280;53207;51.378;-1.342;2023-05-10T09:03:03;100000.54;;;22.71;37.07
66396;BME280;53207;51.378;-1.342;2023-05-10T09:05:30;100001.47;;;22.71;37.19
66396;BME280;53207;51.378;-1.342;2023-05-10T09:07:57;100005.73;;;22.68;37.18
66396;BME280;53207;51.378;-1.342;2023-05-10T09:10:25;100004.55;;;22.73;37.08
66396;BME280;53207;51.378;-1.342;2023-05-10T09:12:53;100010.68;;;22.64;37.11
66396;BME280;53207;51.378;-1.342;2023-05-10T09:15:23;100009.35;;;22.57;37.12
66396;BME280;53207;51.378;-1.342;2023-05-10T09:17:50;100009.66;;;22.81;37.11
66396;BME280;53207;51.378;-1.342;2023-05-10T09:20:18;100009.46;;;22.80;37.08
66396;BME280;53207;51.378;-1.342;2023-05-10T09:22:45;100014.35;;;22.64;36.95
66396;BME280;53207;51.378;-1.342;2023-05-10T09:25:13;100012.77;;;22.79;36.98
66396;BME280;53207;51.378;-1.342;2023-05-10T09:27:43;100011.93;;;22.67;36.73
66396;BME280;53207;51.378;-1.342;2023-05-10T09:30:15;100010.77;;;22.94;37.00
66396;BME280;53207;51.378;-1.342;2023-05-10T09:32:43;100012.42;;;22.39;37.11
66396;BME280;53207;51.378;-1.342;2023-05-10T09:35:12;100014.50;;;22.42;36.96
66396;BME280;53207;51.378;-1.342;2023-05-10T09:37:42;100016.39;;;22.58;37.11
66396;BME280;53207;51.378;-1.342;2023-05-10T09:40:13;100014.77;;;22.45;36.90
66396;BME280;53207;51.378;-1.342;2023-05-10T09:42:41;100013.43;;;22.41;37.04
66396;BME280;53207;51.378;-1.342;2023-05-10T09:45:09;100013.65;;;22.51;36.87
66396;BME280;53207;51.378;-1.342;2023-05-10T09:47:37;100014.63;;;22.79;36.87
66396;BME280;53207;51.378;-1.342;2023-05-10T09:50:04;100009.94;;;22.67;36.68
66396;BME280;53207;51.378;-1.342;2023-05-10T09:52:46;100013.01;;;22.84;36.73
66396;BME280;53207;51.378;-1.342;2023-05-10T09:55:14;100010.24;;;22.81;36.60
66396;BME280;53207;51.378;-1.342;2023-05-10T09:57:41;100011.01;;;22.89;36.82
66396;BME280;53207;51.378;-1.342;2023-05-10T10:00:09;100009.18;;;22.75;36.68
66396;BME280;53207;51.378;-1.342;2023-05-10T10:02:37;100013.08;;;22.57;36.80
66396;BME280;53207;51.378;-1.342;2023-05-10T10:05:06;100017.30;;;22.53;36.74
66396;BME280;53207;51.378;-1.342;2023-05-10T10:07:34;100014.30;;;22.51;36.80
66396;BME280;53207;51.378;-1.342;2023-05-10T10:10:01;100011.49;;;22.65;36.81
66396;BME280;53207;51.378;-1.342;2023-05-10T10:12:28;100013.95;;;22.46;36.80
66396;BME280;53207;51.378;-1.342;2023-05-10T10:14:56;100014.88;;;22.32;36.88
66396;BME280;53207;51.378;-1.342;2023-05-10T10:17:24;100012.16;;;22.62;36.83
66396;BME280;53207;51.378;-1.342;2023-05-10T10:19:55;100011.66;;;22.62;36.78
66396;BME280;53207;51.378;-1.342;2023-05-10T10:22:24;100010.62;;;22.52;36.64
66396;BME280;53207;51.378;-1.342;2023-05-10T10:24:51;100009.56;;;22.60;36.72
66396;BME280;53207;51.378;-1.342;2023-05-10T10:27:23;100009.19;;;22.60;36.68
66396;BME280;53207;51.378;-1.342;2023-05-10T10:30:02;100010.44;;;22.39;36.77
66396;BME280;53207;51.378;-1.342;2023-05-10T10:32:42;100006.35;;;22.53;36.80
66396;BME280;53207;51.378;-1.342;2023-05-10T10:35:15;100004.98;;;22.60;36.78
66396;BME280;53207;51.378;-1.342;2023-05-10T10:37:44;100004.83;;;22.43;36.78
66396;BME280;53207;51.378;-1.342;2023-05-10T10:40:29;100004.25;;;22.63;36.74
66396;BME280;53207;51.378;-1.342;2023-05-10T10:42:56;100002.13;;;22.60;36.82
66396;BME280;53207;51.378;-1.342;2023-05-10T10:45:25;100000.38;;;22.56;36.77
66396;BME280;53207;51.378;-1.342;2023-05-10T10:48:20;99995.51;;;22.56;36.87
66396;BME280;53207;51.378;-1.342;2023-05-10T10:50:56;99994.24;;;22.71;36.55
66396;BME280;53207;51.378;-1.342;2023-05-10T10:53:26;99997.61;;;22.57;36.67
66396;BME280;53207;51.378;-1.342;2023-05-10T10:56:05;100000.79;;;22.37;36.49
66396;BME280;53207;51.378;-1.342;2023-05-10T10:58:33;100000.29;;;22.34;36.49
66396;BME280;53207;51.378;-1.342;2023-05-10T11:01:17;99998.99;;;22.49;36.49
66396;BME280;53207;51.378;-1.342;2023-05-10T11:04:24;100001.80;;;22.57;36.58
66396;BME280;53207;51.378;-1.342;2023-05-10T11:07:16;99999.77;;;22.40;36.48
66396;BME280;53207;51.378;-1.342;2023-05-10T11:09:43;100000.37;;;22.48;36.30
66396;BME280;53207;51.378;-1.342;2023-05-10T11:12:10;99999.37;;;22.48;36.50
66396;BME280;53207;51.378;-1.342;2023-05-10T11:14:37;99993.88;;;22.81;36.34
66396;BME280;53207;51.378;-1.342;2023-05-10T11:17:23;99991.29;;;22.82;36.22
66396;BME280;53207;51.378;-1.342;2023-05-10T11:20:22;99987.57;;;22.82;36.10
66396;BME280;53207;51.378;-1.342;2023-05-10T11:22:50;99988.85;;;22.81;36.18
66396;BME280;53207;51.378;-1.342;2023-05-10T11:25:18;99987.62;;;22.63;36.22
66396;BME280;53207;51.378;-1.342;2023-05-10T11:27:48;99979.49;;;22.64;36.24
66396;BME280;53207;51.378;-1.342;2023-05-10T11:30:15;99981.48;;;22.85;36.01
66396;BME280;53207;51.378;-1.342;2023-05-10T11:32:42;99983.92;;;23.00;35.96
66396;BME280;53207;51.378;-1.342;2023-05-10T11:35:11;99984.69;;;22.68;35.88
66396;BME280;53207;51.378;-1.342;2023-05-10T11:37:40;99987.86;;;23.00;35.91
66396;BME280;53207;51.378;-1.342;2023-05-10T11:40:10;99990.30;;;22.99;35.84
66396;BME280;53207;51.378;-1.342;2023-05-10T11:42:38;99989.80;;;22.63;35.91
66396;BME280;53207;51.378;-1.342;2023-05-10T11:45:07;99987.72;;;22.82;35.82
66396;BME280;53207;51.378;-1.342;2023-05-10T11:47:34;99989.64;;;22.71;35.84
66396;BME280;53207;51.378;-1.342;2023-05-10T11:50:02;99984.06;;;22.94;35.95
66396;BME280;53207;51.378;-1.342;2023-05-10T11:52:29;99986.10;;;22.68;35.76
66396;BME280;53207;51.378;-1.342;2023-05-10T11:54:57;99983.86;;;22.77;35.73
66396;BME280;53207;51.378;-1.342;2023-05-10T11:57:27;99980.95;;;22.68;35.76
66396;BME280;53207;51.378;-1.342;2023-05-10T11:59:54;99981.02;;;22.68;35.82
66396;BME280;53207;51.378;-1.342;2023-05-10T12:02:23;99981.15;;;22.83;35.62
66396;BME280;53207;51.378;-1.342;2023-05-10T12:04:51;99980.55;;;22.96;35.36
66396;BME280;53207;51.378;-1.342;2023-05-10T12:07:18;99977.94;;;22.88;35.56
66396;BME280;53207;51.378;-1.342;2023-05-10T12:10:03;99982.39;;;22.79;35.38
66396;BME280;53207;51.378;-1.342;2023-05-10T12:12:36;99980.52;;;22.93;35.48
66396;BME280;53207;51.378;-1.342;2023-05-10T12:15:05;99983.38;;;23.10;35.27
66396;BME280;53207;51.378;-1.342;2023-05-10T12:17:37;99979.48;;;23.26;35.33
66396;BME280;53207;51.378;-1.342;2023-05-10T12:20:14;99979.36;;;23.03;35.38
66396;BME280;53207;51.378;-1.342;2023-05-10T12:22:44;99977.70;;;23.00;35.52
66396;BME280;53207;51.378;-1.342;2023-05-10T12:25:11;99981.67;;;22.91;35.45
66396;BME280;53207;51.378;-1.342;2023-05-10T12:27:38;99981.18;;;23.25;35.29
66396;BME280;53207;51.378;-1.342;2023-05-10T12:30:07;99983.82;;;22.89;35.33
66396;BME280;53207;51.378;-1.342;2023-05-10T12:32:39;99984.31;;;23.00;35.03
66396;BME280;53207;51.378;-1.342;2023-05-10T12:35:06;99982.48;;;23.08;35.20
66396;BME280;53207;51.378;-1.342;2023-05-10T12:37:34;99984.18;;;23.29;35.07
66396;BME280;53207;51.378;-1.342;2023-05-10T12:40:01;99985.36;;;23.01;35.06
66396;BME280;53207;51.378;-1.342;2023-05-10T12:42:28;99987.51;;;23.15;35.09
66396;BME280;53207;51.378;-1.342;2023-05-10T12:44:56;99983.41;;;23.01;34.99
66396;BME280;53207;51.378;-1.342;2023-05-10T12:47:23;99981.55;;;23.05;35.18
66396;BME280;53207;51.378;-1.342;2023-05-10T12:49:50;99984.13;;;23.09;34.98
66396;BME280;53207;51.378;-1.342;2023-05-10T12:52:17;99984.72;;;22.99;35.11
66396;BME280;53207;51.378;-1.342;2023-05-10T12:54:44;99984.80;;;23.05;35.03
66396;BME280;53207;51.378;-1.342;2023-05-10T12:57:13;99980.98;;;23.34;34.97